createdAt,value
2022-10-05T00:01:53.184Z,97843.84
2022-10-05T00:04:23.570Z,97837.75
2022-10-05T00:06:57.444Z,97841.13
2022-10-05T00:09:33.619Z,97832.59
2022-10-05T00:12:14.588Z,97830.94
2022-10-05T00:14:43.688Z,97830.34
2022-10-05T00:17:16.357Z,97833.81
2022-10-05T00:19:44.377Z,97839.00
2022-10-05T00:22:14.882Z,97840.03
2022-10-05T00:24:44.959Z,97835.88
2022-10-05T00:27:16.994Z,97854.16
2022-10-05T00:29:44.824Z,97842.91
2022-10-05T00:32:12.675Z,97839.53
2022-10-05T00:34:40.170Z,97844.81
2022-10-05T00:37:07.374Z,97861.38
2022-10-05T00:39:37.039Z,97857.25
2022-10-05T00:42:19.378Z,97856.44
2022-10-05T00:44:52.976Z,97857.44
2022-10-05T00:47:35.519Z,97860.00
2022-10-05T00:50:21.067Z,97856.47
2022-10-05T00:52:55.877Z,97856.47
2022-10-05T00:55:33.770Z,97849.78
2022-10-05T00:58:12.804Z,97842.13
2022-10-05T01:00:50.780Z,97842.28
2022-10-05T01:03:26.275Z,97839.63
2022-10-05T01:06:04.285Z,97832.69
2022-10-05T01:08:42.725Z,97831.94
2022-10-05T01:11:17.596Z,97827.78
2022-10-05T01:13:56.010Z,97826.97
2022-10-05T01:16:30.285Z,97832.09
2022-10-05T01:19:10.898Z,97836.44
2022-10-05T01:21:47.370Z,97842.50
2022-10-05T01:24:42.290Z,97831.44
2022-10-05T01:27:32.309Z,97837.44
2022-10-05T01:30:06.168Z,97831.59
2022-10-05T01:32:40.265Z,97837.59
2022-10-05T01:35:21.154Z,97841.06
2022-10-05T01:38:00.821Z,97839.47
2022-10-05T01:40:36.972Z,97834.56
2022-10-05T01:43:14.093Z,97840.63
2022-10-05T01:45:56.355Z,97847.38
2022-10-05T01:48:36.279Z,97850.19
2022-10-05T01:51:12.101Z,97850.41
2022-10-05T01:53:52.836Z,97848.66
2022-10-05T01:56:31.198Z,97847.13
2022-10-05T01:59:10.502Z,97840.31
2022-10-05T02:01:45.178Z,97842.84
2022-10-05T02:04:35.608Z,97844.66
2022-10-05T02:07:12.790Z,97841.22
2022-10-05T02:09:46.714Z,97848.25
2022-10-05T02:12:18.103Z,97837.00
2022-10-05T02:14:51.394Z,97844.00
2022-10-05T02:17:24.331Z,97846.59
2022-10-05T02:19:57.627Z,97843.31
2022-10-05T02:22:30.886Z,97835.56
2022-10-05T02:25:01.903Z,97828.59
2022-10-05T02:27:33.645Z,97828.59
2022-10-05T02:30:05.935Z,97827.97
2022-10-05T02:32:39.893Z,97826.25
2022-10-05T02:35:15.061Z,97815.19
2022-10-05T02:37:49.590Z,97821.22
2022-10-05T02:40:30.251Z,97819.47
2022-10-05T02:43:07.368Z,97817.00
2022-10-05T02:45:47.871Z,97808.59
2022-10-05T02:48:23.829Z,97812.94
2022-10-05T02:50:56.244Z,97807.03
2022-10-05T02:53:30.703Z,97807.03
2022-10-05T02:56:15.506Z,97813.09
2022-10-05T02:58:50.327Z,97798.69
2022-10-05T03:01:26.007Z,97797.78
2022-10-05T03:04:02.750Z,97803.06
2022-10-05T03:06:38.380Z,97803.88
2022-10-05T03:09:07.701Z,97806.41
2022-10-05T03:11:44.930Z,97796.91
2022-10-05T03:14:19.360Z,97803.81
2022-10-05T03:17:04.313Z,97788.38
2022-10-05T03:19:57.997Z,97788.38
2022-10-05T03:22:39.104Z,97791.06
2022-10-05T03:25:30.172Z,97792.00
2022-10-05T03:28:05.658Z,97794.63
2022-10-05T03:30:36.329Z,97793.53
2022-10-05T03:33:15.375Z,97789.31
2022-10-05T03:35:51.512Z,97788.31
2022-10-05T03:38:23.960Z,97779.63
2022-10-05T03:40:55.989Z,97778.03
2022-10-05T03:43:54.091Z,97773.84
2022-10-05T03:46:32.862Z,97774.09
2022-10-05T03:49:11.969Z,97766.50
2022-10-05T03:51:43.531Z,97776.25
2022-10-05T03:54:23.236Z,97775.38
2022-10-05T03:56:55.112Z,97778.03
2022-10-05T03:59:32.229Z,97763.34
2022-10-05T04:02:03.612Z,97777.97
2022-10-05T04:04:38.261Z,97772.84
2022-10-05T04:07:10.594Z,97773.81
2022-10-05T04:09:43.872Z,97780.84
2022-10-05T04:12:16.873Z,97770.66
2022-10-05T04:14:47.658Z,97774.91
2022-10-05T04:17:17.958Z,97773.25
2022-10-05T04:19:55.833Z,97770.72
2022-10-05T04:22:28.981Z,97774.94
2022-10-05T04:25:03.211Z,97772.16
2022-10-05T04:27:36.489Z,97768.81
2022-10-05T04:30:06.917Z,97764.63
2022-10-05T04:32:39.848Z,97768.09
2022-10-05T04:35:35.861Z,97764.56
2022-10-05T04:38:17.795Z,97766.22
2022-10-05T04:41:01.958Z,97764.53
2022-10-05T04:43:37.798Z,97768.91
2022-10-05T04:46:18.983Z,97769.88
2022-10-05T04:49:14.666Z,97781.16
2022-10-05T04:51:51.133Z,97778.53
2022-10-05T04:54:28.635Z,97778.72
2022-10-05T04:57:00.011Z,97771.03
2022-10-05T05:00:02.444Z,97771.94
2022-10-05T05:02:45.600Z,97781.53
2022-10-05T05:05:29.642Z,97781.53
2022-10-05T05:08:10.931Z,97787.47
2022-10-05T05:10:54.278Z,97785.78
2022-10-05T05:13:47.686Z,97786.59
2022-10-05T05:16:28.961Z,97784.69
2022-10-05T05:19:23.737Z,97789.81
2022-10-05T05:22:00.565Z,97799.13
2022-10-05T05:24:40.607Z,97797.38
2022-10-05T05:27:29.444Z,97801.63
2022-10-05T05:30:04.807Z,97807.66
2022-10-05T05:32:40.929Z,97804.19
2022-10-05T05:35:22.453Z,97800.88
2022-10-05T05:37:57.654Z,97801.81
2022-10-05T05:40:30.432Z,97804.44
2022-10-05T05:43:01.298Z,97799.19
2022-10-05T05:45:40.954Z,97796.53
2022-10-05T05:48:16.533Z,97789.47
2022-10-05T05:50:55.527Z,97801.28
2022-10-05T05:53:27.520Z,97808.13
2022-10-05T05:56:01.872Z,97816.72
2022-10-05T05:58:35.646Z,97816.69
2022-10-05T06:01:07.155Z,97821.66
2022-10-05T06:03:40.030Z,97818.03
2022-10-05T06:06:11.348Z,97823.00
2022-10-05T06:08:43.058Z,97834.88
2022-10-05T06:11:17.812Z,97826.13
2022-10-05T06:13:45.369Z,97821.72
2022-10-05T06:16:18.410Z,97827.56
2022-10-05T06:18:48.520Z,97829.16
2022-10-05T06:21:23.050Z,97835.94
2022-10-05T06:23:55.384Z,97843.47
2022-10-05T06:26:39.698Z,97838.03
2022-10-05T06:29:14.339Z,97834.41
2022-10-05T06:32:01.153Z,97842.81
2022-10-05T06:34:45.960Z,97833.78
2022-10-05T06:37:23.204Z,97834.44
2022-10-05T06:40:11.690Z,97846.19
2022-10-05T06:42:49.810Z,97836.50
2022-10-05T06:45:28.546Z,97845.69
2022-10-05T06:48:05.313Z,97840.22
2022-10-05T06:50:38.772Z,97851.84
2022-10-05T06:53:21.119Z,97845.63
2022-10-05T06:55:54.408Z,97838.47
2022-10-05T06:58:37.003Z,97832.16
2022-10-05T07:01:11.286Z,97845.72
2022-10-05T07:03:57.961Z,97834.34
2022-10-05T07:06:32.437Z,97847.72
2022-10-05T07:09:17.939Z,97852.59
2022-10-05T07:12:04.519Z,97855.78
2022-10-05T07:14:52.130Z,97852.13
2022-10-05T07:17:35.221Z,97853.63
2022-10-05T07:20:13.881Z,97848.94
2022-10-05T07:23:16.542Z,97862.28
2022-10-05T07:25:49.098Z,97857.75
2022-10-05T07:28:27.321Z,97856.72
2022-10-05T07:31:00.899Z,97862.44
2022-10-05T07:33:36.461Z,97859.59
2022-10-05T07:36:10.439Z,97849.09
2022-10-05T07:38:43.426Z,97848.72
2022-10-05T07:41:18.730Z,97849.25
2022-10-05T07:44:02.893Z,97842.03
2022-10-05T07:46:47.452Z,97844.38
2022-10-05T07:49:22.956Z,97855.13
2022-10-05T07:51:55.368Z,97855.59
2022-10-05T07:54:27.363Z,97854.38
2022-10-05T07:57:02.578Z,97865.97
2022-10-05T07:59:36.769Z,97866.41
2022-10-05T08:02:14.407Z,97860.94
2022-10-05T08:04:49.456Z,97858.81
2022-10-05T08:07:18.119Z,97849.03
2022-10-05T08:09:52.596Z,97851.31
2022-10-05T08:12:51.081Z,97839.78
2022-10-05T08:15:22.727Z,97848.06
2022-10-05T08:17:56.402Z,97845.13
2022-10-05T08:20:33.970Z,97850.69
2022-10-05T08:23:09.458Z,97850.47
2022-10-05T08:25:46.550Z,97839.63
2022-10-05T08:28:20.798Z,97846.19
2022-10-05T08:31:04.287Z,97851.66
2022-10-05T08:33:44.719Z,97841.72
2022-10-05T08:36:14.586Z,97854.44
2022-10-05T08:38:42.329Z,97855.09
2022-10-05T08:41:32.041Z,97853.19
2022-10-05T08:44:27.818Z,97849.38
2022-10-05T08:47:15.853Z,97857.94
2022-10-05T08:50:07.571Z,97851.50
2022-10-05T08:52:50.570Z,97853.06
2022-10-05T08:55:35.561Z,97857.00
2022-10-05T08:58:46.916Z,97853.19
2022-10-05T09:01:21.251Z,97849.47
2022-10-05T09:04:26.741Z,97849.25
2022-10-05T09:07:17.604Z,97854.72
2022-10-05T09:10:36.987Z,97843.06
2022-10-05T09:13:44.786Z,97845.09
2022-10-05T09:16:29.693Z,97862.84
2022-10-05T09:19:16.369Z,97855.31
2022-10-05T09:21:51.550Z,97846.41
2022-10-05T09:24:48.607Z,97839.19
2022-10-05T09:27:18.008Z,97842.38
2022-10-05T09:30:26.409Z,97846.34
2022-10-05T09:33:34.554Z,97834.81
2022-10-05T09:36:52.649Z,97848.00
2022-10-05T09:39:59.140Z,97843.72
2022-10-05T09:42:56.810Z,97830.75
2022-10-05T09:45:58.300Z,97843.53
2022-10-05T09:48:59.514Z,97826.25
2022-10-05T09:52:04.665Z,97838.31
2022-10-05T09:55:10.446Z,97841.22
2022-10-05T09:58:06.868Z,97827.63
2022-10-05T10:01:03.705Z,97835.97
2022-10-05T10:04:11.944Z,97821.31
2022-10-05T10:07:23.813Z,97832.97
2022-10-05T10:10:22.255Z,97828.09
2022-10-05T10:13:14.479Z,97816.16
2022-10-05T10:16:15.919Z,97826.16
2022-10-05T10:19:21.533Z,97821.56
2022-10-05T10:22:21.899Z,97833.13
2022-10-05T10:25:03.686Z,97820.88
2022-10-05T10:27:52.412Z,97814.25
2022-10-05T10:30:55.111Z,97817.59
2022-10-05T10:34:06.260Z,97809.25
2022-10-05T10:36:52.120Z,97822.84
2022-10-05T10:39:32.657Z,97819.84
2022-10-05T10:42:26.172Z,97819.44
2022-10-05T10:45:13.477Z,97823.75
2022-10-05T10:47:50.613Z,97818.13
2022-10-05T10:51:12.409Z,97815.41
2022-10-05T10:54:07.560Z,97813.53
2022-10-05T10:56:56.520Z,97814.69
2022-10-05T11:00:09.479Z,97815.38
2022-10-05T11:03:01.042Z,97807.94
2022-10-05T11:05:46.406Z,97812.66
2022-10-05T11:08:52.367Z,97808.03
2022-10-05T11:11:55.428Z,97813.63
2022-10-05T11:15:02.374Z,97815.31
2022-10-05T11:17:53.467Z,97810.09
2022-10-05T11:20:45.148Z,97805.56
2022-10-05T11:23:36.535Z,97796.66
2022-10-05T11:26:44.162Z,97799.69
2022-10-05T11:29:39.101Z,97797.63
2022-10-05T11:32:21.024Z,97794.88
2022-10-05T11:35:32.940Z,97786.91
2022-10-05T11:38:16.294Z,97781.22
2022-10-05T11:41:14.899Z,97769.75
2022-10-05T11:44:06.111Z,97774.13
2022-10-05T11:46:43.719Z,97760.66
2022-10-05T11:49:23.639Z,97758.66
2022-10-05T11:51:59.217Z,97768.38
2022-10-05T11:55:10.505Z,97763.38
2022-10-05T11:57:48.932Z,97751.38
2022-10-05T12:00:19.467Z,97753.69
2022-10-05T12:03:26.005Z,97759.75
2022-10-05T12:06:21.947Z,97762.03
2022-10-05T12:09:03.840Z,97758.13
2022-10-05T12:12:01.249Z,97758.50
2022-10-05T12:14:40.323Z,97763.22
2022-10-05T12:17:20.537Z,97753.06
2022-10-05T12:19:56.653Z,97751.19
2022-10-05T12:22:32.101Z,97752.03
2022-10-05T12:25:03.232Z,97755.00
2022-10-05T12:27:37.788Z,97747.25
2022-10-05T12:30:15.552Z,97746.19
2022-10-05T12:32:55.866Z,97746.31
2022-10-05T12:35:53.510Z,97755.63
2022-10-05T12:38:27.501Z,97753.72
2022-10-05T12:41:07.494Z,97757.69
2022-10-05T12:43:47.733Z,97750.50
2022-10-05T12:46:24.175Z,97755.66
2022-10-05T12:49:22.455Z,97753.50
2022-10-05T12:51:57.939Z,97744.66
2022-10-05T12:54:29.590Z,97737.72
2022-10-05T12:57:02.001Z,97748.63
2022-10-05T12:59:40.671Z,97739.66
2022-10-05T13:02:22.945Z,97742.03
2022-10-05T13:04:58.199Z,97746.13
2022-10-05T13:07:45.598Z,97743.38
2022-10-05T13:10:27.708Z,97740.50
2022-10-05T13:13:06.443Z,97738.59
2022-10-05T13:15:41.602Z,97743.00
2022-10-05T13:18:21.319Z,97744.94
2022-10-05T13:20:58.458Z,97735.59
2022-10-05T13:23:39.342Z,97735.38
2022-10-05T13:26:12.695Z,97742.31
2022-10-05T13:28:48.998Z,97748.28
2022-10-05T13:31:23.455Z,97744.59
2022-10-05T13:34:22.628Z,97734.66
2022-10-05T13:37:01.962Z,97740.97
2022-10-05T13:39:54.405Z,97744.59
2022-10-05T13:42:31.557Z,97741.22
2022-10-05T13:45:03.888Z,97739.31
2022-10-05T13:47:36.150Z,97730.59
2022-10-05T13:50:09.795Z,97726.88
2022-10-05T13:52:49.122Z,97728.56
2022-10-05T13:55:33.622Z,97732.16
2022-10-05T13:58:06.339Z,97733.94
2022-10-05T14:00:43.971Z,97733.72
2022-10-05T14:03:25.645Z,97732.97
2022-10-05T14:05:57.987Z,97729.28
2022-10-05T14:08:32.110Z,97730.72
2022-10-05T14:11:21.468Z,97723.66
2022-10-05T14:13:53.170Z,97731.91
2022-10-05T14:16:22.305Z,97726.66
2022-10-05T14:18:58.415Z,97725.69
2022-10-05T14:21:27.495Z,97718.53
2022-10-05T14:23:54.947Z,97724.84
2022-10-05T14:26:34.731Z,97724.03
2022-10-05T14:29:15.919Z,97712.69
2022-10-05T14:31:53.984Z,97717.69
2022-10-05T14:34:31.250Z,97717.69
2022-10-05T14:37:01.098Z,97714.44
2022-10-05T14:39:33.619Z,97716.13
2022-10-05T14:42:14.444Z,97711.81
2022-10-05T14:44:43.058Z,97704.06
2022-10-05T14:47:20.514Z,97706.69
2022-10-05T14:49:53.559Z,97704.19
2022-10-05T14:52:38.895Z,97712.28
2022-10-05T14:55:37.746Z,97702.63
2022-10-05T14:58:32.591Z,97708.84
2022-10-05T15:01:05.853Z,97706.91
2022-10-05T15:03:47.099Z,97702.41
2022-10-05T15:06:22.297Z,97699.91
2022-10-05T15:09:17.382Z,97701.66
2022-10-05T15:11:50.257Z,97703.47
2022-10-05T15:14:22.584Z,97698.56
2022-10-05T15:16:53.457Z,97696.31
2022-10-05T15:19:25.569Z,97692.59
2022-10-05T15:22:17.332Z,97695.44
2022-10-05T15:24:48.950Z,97695.09
2022-10-05T15:27:25.658Z,97691.88
2022-10-05T15:30:14.689Z,97696.63
2022-10-05T15:32:57.058Z,97694.25
2022-10-05T15:36:03.751Z,97688.41
2022-10-05T15:38:40.013Z,97686.47
2022-10-05T15:41:12.695Z,97689.56
2022-10-05T15:43:50.891Z,97682.16
2022-10-05T15:46:25.927Z,97689.63
2022-10-05T15:49:03.230Z,97682.09
2022-10-05T15:51:41.963Z,97680.41
2022-10-05T15:54:18.462Z,97687.69
2022-10-05T15:56:51.369Z,97686.25
2022-10-05T15:59:27.537Z,97683.13
2022-10-05T16:01:59.958Z,97679.50
2022-10-05T16:04:41.985Z,97683.69
2022-10-05T16:07:15.674Z,97685.78
2022-10-05T16:09:50.542Z,97687.09
2022-10-05T16:12:38.560Z,97685.97
2022-10-05T16:15:18.993Z,97686.19
2022-10-05T16:18:06.541Z,97687.47
2022-10-05T16:20:41.751Z,97686.25
2022-10-05T16:23:20.238Z,97689.09
2022-10-05T16:25:56.062Z,97690.38
2022-10-05T16:28:34.744Z,97691.56
2022-10-05T16:31:12.264Z,97699.97
2022-10-05T16:33:56.337Z,97696.81
2022-10-05T16:36:36.701Z,97690.38
2022-10-05T16:39:12.213Z,97694.31
2022-10-05T16:41:42.718Z,97698.31
2022-10-05T16:44:21.883Z,97694.38
2022-10-05T16:46:56.685Z,97695.63
2022-10-05T16:49:36.467Z,97699.00
2022-10-05T16:52:05.181Z,97704.75
2022-10-05T16:54:37.431Z,97707.59
2022-10-05T16:57:11.218Z,97707.28
2022-10-05T17:00:16.014Z,97707.59
2022-10-05T17:02:56.893Z,97708.94
2022-10-05T17:05:44.236Z,97701.41
2022-10-05T17:08:43.821Z,97700.16
2022-10-05T17:11:23.496Z,97689.25
2022-10-05T17:14:12.758Z,97695.84
2022-10-05T17:16:56.711Z,97692.59
2022-10-05T17:19:47.733Z,97688.19
2022-10-05T17:22:25.403Z,97690.28
2022-10-05T17:25:03.885Z,97700.13
2022-10-05T17:27:35.342Z,97698.72
2022-10-05T17:30:46.427Z,97701.03
2022-10-05T17:33:25.117Z,97691.84
2022-10-05T17:35:55.718Z,97695.63
2022-10-05T17:38:45.428Z,97704.69
2022-10-05T17:41:20.063Z,97700.69
2022-10-05T17:44:23.166Z,97700.25
2022-10-05T17:46:52.352Z,97694.50
2022-10-05T17:49:44.292Z,97697.31
2022-10-05T17:52:26.417Z,97703.94
2022-10-05T17:55:22.220Z,97702.56
2022-10-05T17:57:49.311Z,97694.94
2022-10-05T18:00:49.727Z,97692.72
2022-10-05T18:03:37.208Z,97699.69
2022-10-05T18:06:30.641Z,97698.22
2022-10-05T18:09:22.505Z,97705.31
2022-10-05T18:12:17.878Z,97702.97
2022-10-05T18:15:02.027Z,97703.38
2022-10-05T18:17:43.158Z,97696.69
2022-10-05T18:20:29.802Z,97712.44
2022-10-05T18:23:28.297Z,97702.91
2022-10-05T18:26:06.333Z,97699.75
2022-10-05T18:28:48.535Z,97707.03
2022-10-05T18:31:26.886Z,97702.94
2022-10-05T18:34:22.028Z,97704.06
2022-10-05T18:36:55.369Z,97703.31
2022-10-05T18:39:41.457Z,97709.56
2022-10-05T18:42:20.253Z,97713.09
2022-10-05T18:44:55.319Z,97710.75
2022-10-05T18:47:34.194Z,97714.31
2022-10-05T18:50:18.970Z,97703.28
2022-10-05T18:53:00.078Z,97714.69
2022-10-05T18:55:36.931Z,97713.09
2022-10-05T18:58:22.069Z,97716.72
2022-10-05T19:01:21.542Z,97716.91
2022-10-05T19:04:03.533Z,97713.56
2022-10-05T19:06:36.283Z,97717.13
2022-10-05T19:09:17.668Z,97717.94
2022-10-05T19:11:54.402Z,97713.00
2022-10-05T19:14:34.610Z,97709.75
2022-10-05T19:17:23.581Z,97706.50
2022-10-05T19:20:14.651Z,97711.09
2022-10-05T19:22:55.361Z,97720.88
2022-10-05T19:25:37.023Z,97718.44
2022-10-05T19:28:15.069Z,97721.16
2022-10-05T19:31:09.250Z,97722.97
2022-10-05T19:33:58.517Z,97722.25
2022-10-05T19:36:38.975Z,97731.00
2022-10-05T19:39:12.842Z,97725.94
2022-10-05T19:41:59.459Z,97727.00
2022-10-05T19:44:37.976Z,97721.09
2022-10-05T19:47:19.078Z,97729.09
2022-10-05T19:50:00.073Z,97729.28
2022-10-05T19:52:29.220Z,97726.09
2022-10-05T19:55:12.817Z,97727.09
2022-10-05T19:57:47.426Z,97734.38
2022-10-05T20:00:21.225Z,97733.78
2022-10-05T20:02:48.405Z,97735.63
2022-10-05T20:05:19.119Z,97738.31
2022-10-05T20:07:47.417Z,97736.84
2022-10-05T20:10:25.257Z,97745.75
2022-10-05T20:12:54.989Z,97748.34
2022-10-05T20:15:24.562Z,97749.47
2022-10-05T20:17:51.762Z,97746.34
2022-10-05T20:20:38.007Z,97749.13
2022-10-05T20:23:22.081Z,97751.06
2022-10-05T20:25:49.221Z,97749.56
2022-10-05T20:28:30.951Z,97759.31
2022-10-05T20:30:58.800Z,97761.25
2022-10-05T20:33:26.260Z,97751.91
2022-10-05T20:35:55.413Z,97754.53
2022-10-05T20:38:23.050Z,97763.19
2022-10-05T20:40:50.406Z,97763.59
2022-10-05T20:43:17.496Z,97768.88
2022-10-05T20:45:44.731Z,97766.44
2022-10-05T20:48:13.040Z,97761.31
2022-10-05T20:50:40.791Z,97757.88
2022-10-05T20:53:11.892Z,97761.47
2022-10-05T20:55:39.748Z,97775.63
2022-10-05T20:58:06.990Z,97770.56
2022-10-05T21:00:34.586Z,97774.41
2022-10-05T21:03:02.037Z,97776.34
2022-10-05T21:05:29.128Z,97780.69
2022-10-05T21:07:56.975Z,97768.78
2022-10-05T21:10:25.635Z,97765.44
2022-10-05T21:12:52.949Z,97779.44
2022-10-05T21:15:20.409Z,97779.69
2022-10-05T21:17:47.616Z,97776.41
2022-10-05T21:20:15.085Z,97781.69
2022-10-05T21:22:42.575Z,97771.44
2022-10-05T21:25:10.760Z,97776.81
2022-10-05T21:27:39.148Z,97782.16
2022-10-05T21:30:08.125Z,97775.41
2022-10-05T21:32:36.863Z,97779.94
2022-10-05T21:35:06.507Z,97775.72
2022-10-05T21:37:36.802Z,97773.28
2022-10-05T21:40:04.626Z,97775.22
2022-10-05T21:42:32.045Z,97778.88
2022-10-05T21:45:01.048Z,97774.59
2022-10-05T21:47:28.952Z,97772.13
2022-10-05T21:49:56.315Z,97774.06
2022-10-05T21:52:24.662Z,97772.38
2022-10-05T21:54:52.803Z,97776.06
2022-10-05T21:57:20.768Z,97777.97
2022-10-05T21:59:49.852Z,97778.03
2022-10-05T22:02:19.105Z,97778.19
2022-10-05T22:04:46.887Z,97774.91
2022-10-05T22:07:16.009Z,97769.78
2022-10-05T22:09:44.877Z,97773.38
2022-10-05T22:12:12.371Z,97766.59
2022-10-05T22:14:39.523Z,97774.47
2022-10-05T22:17:10.012Z,97773.72
2022-10-05T22:19:39.658Z,97783.41
2022-10-05T22:22:11.690Z,97777.66
2022-10-05T22:24:39.258Z,97770.84
2022-10-05T22:27:06.779Z,97778.72
2022-10-05T22:29:34.036Z,97769.25
2022-10-05T22:32:01.554Z,97779.66
2022-10-05T22:34:28.890Z,97778.94
2022-10-05T22:37:01.681Z,97772.91
2022-10-05T22:39:29.185Z,97780.72
2022-10-05T22:41:57.626Z,97768.69
2022-10-05T22:44:25.138Z,97779.97
2022-10-05T22:46:53.521Z,97767.19
2022-10-05T22:49:21.459Z,97772.84
2022-10-05T22:51:50.930Z,97772.97
2022-10-05T22:54:19.567Z,97785.19
2022-10-05T22:56:46.895Z,97774.03
2022-10-05T22:59:14.192Z,97775.00
2022-10-05T23:01:41.950Z,97781.97
2022-10-05T23:04:09.182Z,97783.75
2022-10-05T23:06:36.633Z,97785.56
2022-10-05T23:09:04.657Z,97777.16
2022-10-05T23:11:33.606Z,97785.84
2022-10-05T23:14:01.522Z,97785.91
2022-10-05T23:16:29.326Z,97778.19
2022-10-05T23:18:57.148Z,97795.47
2022-10-05T23:21:29.097Z,97791.25
2022-10-05T23:23:56.702Z,97789.66
2022-10-05T23:26:25.338Z,97790.72
2022-10-05T23:28:54.650Z,97806.16
2022-10-05T23:31:24.677Z,97800.50
2022-10-05T23:33:54.377Z,97803.91
2022-10-05T23:36:24.883Z,97807.53
2022-10-05T23:38:53.303Z,97804.13
2022-10-05T23:41:21.182Z,97812.00
2022-10-05T23:43:49.082Z,97806.03
2022-10-05T23:46:18.786Z,97816.56
2022-10-05T23:48:46.266Z,97807.88
2022-10-05T23:51:14.737Z,97804.41
2022-10-05T23:53:41.988Z,97813.22
2022-10-05T23:56:09.247Z,97806.31
2022-10-05T23:58:36.651Z,97819.38
